sensor_id;sensor_type;location;lat;lon;timestamp;P1;durP1;ratioP1;P2;durP2;ratioP2
15096;SDS011;7649;52.084;7.478;2023-07-13T00:02:23;4.95;;;2.35;;
15096;SDS011;7649;52.084;7.478;2023-07-13T00:04:53;5.80;;;2.70;;
15096;SDS011;7649;52.084;7.478;2023-07-13T00:07:21;6.43;;;2.78;;
15096;SDS011;7649;52.084;7.478;2023-07-13T00:09:51;6.05;;;2.47;;
15096;SDS011;7649;52.084;7.478;2023-07-13T00:12:23;5.93;;;2.80;;
15096;SDS011;7649;52.084;7.478;2023-07-13T00:14:52;4.63;;;2.25;;
15096;SDS011;7649;52.084;7.478;2023-07-13T00:17:20;4.68;;;2.65;;
15096;SDS011;7649;52.084;7.478;2023-07-13T00:19:48;8.70;;;3.00;;
15096;SDS011;7649;52.084;7.478;2023-07-13T00:22:17;8.77;;;2.90;;
15096;SDS011;7649;52.084;7.478;2023-07-13T00:24:45;5.55;;;2.78;;
15096;SDS011;7649;52.084;7.478;2023-07-13T00:27:15;7.82;;;2.95;;
15096;SDS011;7649;52.084;7.478;2023-07-13T00:29:44;8.10;;;2.80;;
15096;SDS011;7649;52.084;7.478;2023-07-13T00:32:12;5.97;;;2.92;;
15096;SDS011;7649;52.084;7.478;2023-07-13T00:34:41;7.82;;;3.30;;
15096;SDS011;7649;52.084;7.478;2023-07-13T00:37:09;5.03;;;2.90;;
15096;SDS011;7649;52.084;7.478;2023-07-13T00:39:38;7.43;;;2.72;;
15096;SDS011;7649;52.084;7.478;2023-07-13T00:42:06;6.25;;;2.50;;
15096;SDS011;7649;52.084;7.478;2023-07-13T00:44:36;8.98;;;2.90;;
15096;SDS011;7649;52.084;7.478;2023-07-13T00:47:06;6.07;;;2.50;;
15096;SDS011;7649;52.084;7.478;2023-07-13T00:49:34;5.93;;;2.70;;
15096;SDS011;7649;52.084;7.478;2023-07-13T00:52:04;5.55;;;2.63;;
15096;SDS011;7649;52.084;7.478;2023-07-13T00:54:34;9.38;;;2.97;;
15096;SDS011;7649;52.084;7.478;2023-07-13T00:57:04;9.18;;;3.10;;
15096;SDS011;7649;52.084;7.478;2023-07-13T00:59:33;7.25;;;3.08;;
15096;SDS011;7649;52.084;7.478;2023-07-13T01:02:04;6.70;;;3.30;;
15096;SDS011;7649;52.084;7.478;2023-07-13T01:04:33;8.75;;;3.45;;
15096;SDS011;7649;52.084;7.478;2023-07-13T01:07:01;7.82;;;3.47;;
15096;SDS011;7649;52.084;7.478;2023-07-13T01:09:30;7.10;;;3.00;;
15096;SDS011;7649;52.084;7.478;2023-07-13T01:11:58;7.03;;;3.50;;
15096;SDS011;7649;52.084;7.478;2023-07-13T01:14:26;6.90;;;3.03;;
15096;SDS011;7649;52.084;7.478;2023-07-13T01:16:55;8.60;;;2.97;;
15096;SDS011;7649;52.084;7.478;2023-07-13T01:19:30;7.80;;;3.22;;
15096;SDS011;7649;52.084;7.478;2023-07-13T01:22:04;6.07;;;3.25;;
15096;SDS011;7649;52.084;7.478;2023-07-13T01:24:35;9.93;;;3.30;;
15096;SDS011;7649;52.084;7.478;2023-07-13T01:27:03;8.80;;;3.05;;
15096;SDS011;7649;52.084;7.478;2023-07-13T01:29:33;8.45;;;3.10;;
15096;SDS011;7649;52.084;7.478;2023-07-13T01:32:08;5.97;;;3.00;;
15096;SDS011;7649;52.084;7.478;2023-07-13T01:34:37;9.70;;;3.30;;
15096;SDS011;7649;52.084;7.478;2023-07-13T01:37:10;8.23;;;3.17;;
15096;SDS011;7649;52.084;7.478;2023-07-13T01:39:39;7.40;;;3.03;;
15096;SDS011;7649;52.084;7.478;2023-07-13T01:42:07;8.47;;;3.47;;
15096;SDS011;7649;52.084;7.478;2023-07-13T01:44:36;8.90;;;3.40;;
15096;SDS011;7649;52.084;7.478;2023-07-13T01:47:04;6.90;;;3.57;;
15096;SDS011;7649;52.084;7.478;2023-07-13T01:49:33;10.10;;;3.50;;
15096;SDS011;7649;52.084;7.478;2023-07-13T01:52:01;7.30;;;3.00;;
15096;SDS011;7649;52.084;7.478;2023-07-13T01:54:31;9.00;;;3.50;;
15096;SDS011;7649;52.084;7.478;2023-07-13T01:57:00;8.57;;;2.93;;
15096;SDS011;7649;52.084;7.478;2023-07-13T01:59:29;9.43;;;3.00;;
15096;SDS011;7649;52.084;7.478;2023-07-13T02:01:59;8.50;;;3.17;;
15096;SDS011;7649;52.084;7.478;2023-07-13T02:04:27;7.87;;;2.97;;
15096;SDS011;7649;52.084;7.478;2023-07-13T02:06:56;5.20;;;2.80;;
15096;SDS011;7649;52.084;7.478;2023-07-13T02:09:24;8.37;;;2.80;;
15096;SDS011;7649;52.084;7.478;2023-07-13T02:11:54;9.43;;;3.17;;
15096;SDS011;7649;52.084;7.478;2023-07-13T02:14:22;8.20;;;3.23;;
15096;SDS011;7649;52.084;7.478;2023-07-13T02:16:51;7.13;;;3.33;;
15096;SDS011;7649;52.084;7.478;2023-07-13T02:19:19;7.00;;;2.90;;
15096;SDS011;7649;52.084;7.478;2023-07-13T02:21:48;8.63;;;3.03;;
15096;SDS011;7649;52.084;7.478;2023-07-13T02:24:16;6.80;;;2.60;;
15096;SDS011;7649;52.084;7.478;2023-07-13T02:26:47;6.77;;;3.17;;
15096;SDS011;7649;52.084;7.478;2023-07-13T02:29:16;6.30;;;2.87;;
15096;SDS011;7649;52.084;7.478;2023-07-13T02:31:45;4.07;;;2.67;;
15096;SDS011;7649;52.084;7.478;2023-07-13T02:34:13;5.53;;;2.57;;
15096;SDS011;7649;52.084;7.478;2023-07-13T02:36:41;8.20;;;3.00;;
15096;SDS011;7649;52.084;7.478;2023-07-13T02:39:09;5.40;;;2.80;;
15096;SDS011;7649;52.084;7.478;2023-07-13T02:41:39;5.90;;;2.77;;
15096;SDS011;7649;52.084;7.478;2023-07-13T02:44:07;6.57;;;2.97;;
15096;SDS011;7649;52.084;7.478;2023-07-13T02:46:37;6.67;;;2.80;;
15096;SDS011;7649;52.084;7.478;2023-07-13T02:49:06;8.17;;;2.70;;
15096;SDS011;7649;52.084;7.478;2023-07-13T02:51:34;4.67;;;2.50;;
15096;SDS011;7649;52.084;7.478;2023-07-13T02:54:03;4.63;;;2.40;;
15096;SDS011;7649;52.084;7.478;2023-07-13T02:56:31;5.53;;;2.93;;
15096;SDS011;7649;52.084;7.478;2023-07-13T02:59:00;7.03;;;2.87;;
15096;SDS011;7649;52.084;7.478;2023-07-13T03:01:28;7.70;;;2.90;;
15096;SDS011;7649;52.084;7.478;2023-07-13T03:04:00;8.60;;;3.00;;
15096;SDS011;7649;52.084;7.478;2023-07-13T03:06:28;8.83;;;3.30;;
15096;SDS011;7649;52.084;7.478;2023-07-13T03:08:58;6.73;;;3.40;;
15096;SDS011;7649;52.084;7.478;2023-07-13T03:11:27;6.90;;;3.10;;
15096;SDS011;7649;52.084;7.478;2023-07-13T03:13:55;4.30;;;2.60;;
15096;SDS011;7649;52.084;7.478;2023-07-13T03:16:24;6.03;;;2.70;;
15096;SDS011;7649;52.084;7.478;2023-07-13T03:18:52;7.30;;;3.00;;
15096;SDS011;7649;52.084;7.478;2023-07-13T03:21:22;4.10;;;2.83;;
15096;SDS011;7649;52.084;7.478;2023-07-13T03:23:50;9.40;;;3.10;;
15096;SDS011;7649;52.084;7.478;2023-07-13T03:26:19;7.37;;;2.97;;
15096;SDS011;7649;52.084;7.478;2023-07-13T03:28:48;5.07;;;3.27;;
15096;SDS011;7649;52.084;7.478;2023-07-13T03:31:17;6.67;;;2.90;;
15096;SDS011;7649;52.084;7.478;2023-07-13T03:33:46;5.40;;;3.10;;
15096;SDS011;7649;52.084;7.478;2023-07-13T03:36:16;6.97;;;3.10;;
15096;SDS011;7649;52.084;7.478;2023-07-13T03:38:48;6.33;;;2.80;;
15096;SDS011;7649;52.084;7.478;2023-07-13T03:41:16;7.07;;;3.27;;
15096;SDS011;7649;52.084;7.478;2023-07-13T03:43:44;8.33;;;2.97;;
15096;SDS011;7649;52.084;7.478;2023-07-13T03:46:14;6.03;;;2.77;;
15096;SDS011;7649;52.084;7.478;2023-07-13T03:48:43;5.23;;;2.47;;
15096;SDS011;7649;52.084;7.478;2023-07-13T03:51:12;6.20;;;2.93;;
15096;SDS011;7649;52.084;7.478;2023-07-13T03:53:42;7.77;;;2.73;;
15096;SDS011;7649;52.084;7.478;2023-07-13T03:56:12;7.80;;;3.10;;
15096;SDS011;7649;52.084;7.478;2023-07-13T03:58:42;5.43;;;2.80;;
15096;SDS011;7649;52.084;7.478;2023-07-13T04:01:11;6.00;;;2.73;;
15096;SDS011;7649;52.084;7.478;2023-07-13T04:03:40;7.13;;;3.00;;
15096;SDS011;7649;52.084;7.478;2023-07-13T04:06:13;7.47;;;3.03;;
15096;SDS011;7649;52.084;7.478;2023-07-13T04:08:47;6.73;;;2.83;;
15096;SDS011;7649;52.084;7.478;2023-07-13T04:11:18;9.37;;;3.00;;
15096;SDS011;7649;52.084;7.478;2023-07-13T04:13:47;7.83;;;3.13;;
15096;SDS011;7649;52.084;7.478;2023-07-13T04:16:16;5.83;;;2.73;;
15096;SDS011;7649;52.084;7.478;2023-07-13T04:18:45;6.90;;;2.90;;
15096;SDS011;7649;52.084;7.478;2023-07-13T04:21:14;5.97;;;2.60;;
15096;SDS011;7649;52.084;7.478;2023-07-13T04:23:42;7.07;;;3.13;;
15096;SDS011;7649;52.084;7.478;2023-07-13T04:26:10;6.30;;;2.47;;
15096;SDS011;7649;52.084;7.478;2023-07-13T04:28:41;4.53;;;2.23;;
15096;SDS011;7649;52.084;7.478;2023-07-13T04:31:09;4.67;;;2.47;;
15096;SDS011;7649;52.084;7.478;2023-07-13T04:33:37;5.03;;;2.70;;
15096;SDS011;7649;52.084;7.478;2023-07-13T04:36:06;5.50;;;2.70;;
15096;SDS011;7649;52.084;7.478;2023-07-13T04:38:36;10.03;;;2.60;;
15096;SDS011;7649;52.084;7.478;2023-07-13T04:41:05;6.73;;;2.83;;
15096;SDS011;7649;52.084;7.478;2023-07-13T04:43:33;4.77;;;2.50;;
15096;SDS011;7649;52.084;7.478;2023-07-13T04:46:06;7.70;;;2.73;;
15096;SDS011;7649;52.084;7.478;2023-07-13T04:48:36;6.47;;;2.70;;
15096;SDS011;7649;52.084;7.478;2023-07-13T04:51:04;6.07;;;2.80;;
15096;SDS011;7649;52.084;7.478;2023-07-13T04:53:33;8.40;;;2.50;;
15096;SDS011;7649;52.084;7.478;2023-07-13T04:56:02;6.37;;;2.70;;
15096;SDS011;7649;52.084;7.478;2023-07-13T04:58:30;7.13;;;3.20;;
15096;SDS011;7649;52.084;7.478;2023-07-13T05:01:00;5.10;;;2.63;;
15096;SDS011;7649;52.084;7.478;2023-07-13T05:03:30;3.93;;;2.63;;
15096;SDS011;7649;52.084;7.478;2023-07-13T05:05:59;7.53;;;2.70;;
15096;SDS011;7649;52.084;7.478;2023-07-13T05:08:28;8.27;;;3.00;;
15096;SDS011;7649;52.084;7.478;2023-07-13T05:10:56;7.10;;;2.97;;
15096;SDS011;7649;52.084;7.478;2023-07-13T05:13:24;6.57;;;3.13;;
15096;SDS011;7649;52.084;7.478;2023-07-13T05:15:56;11.43;;;3.30;;
15096;SDS011;7649;52.084;7.478;2023-07-13T05:18:24;9.93;;;3.20;;
15096;SDS011;7649;52.084;7.478;2023-07-13T05:21:00;8.43;;;2.87;;
15096;SDS011;7649;52.084;7.478;2023-07-13T05:23:29;6.37;;;2.93;;
15096;SDS011;7649;52.084;7.478;2023-07-13T05:25:58;10.17;;;3.17;;
15096;SDS011;7649;52.084;7.478;2023-07-13T05:28:27;11.00;;;3.47;;
15096;SDS011;7649;52.084;7.478;2023-07-13T05:30:56;8.10;;;3.17;;
15096;SDS011;7649;52.084;7.478;2023-07-13T05:33:24;7.27;;;3.40;;
15096;SDS011;7649;52.084;7.478;2023-07-13T05:35:53;7.30;;;3.57;;
15096;SDS011;7649;52.084;7.478;2023-07-13T05:38:23;10.93;;;3.33;;
15096;SDS011;7649;52.084;7.478;2023-07-13T05:40:53;7.20;;;3.23;;
15096;SDS011;7649;52.084;7.478;2023-07-13T05:43:22;14.47;;;3.40;;
15096;SDS011;7649;52.084;7.478;2023-07-13T05:45:53;8.70;;;3.37;;
15096;SDS011;7649;52.084;7.478;2023-07-13T05:48:22;8.93;;;3.53;;
15096;SDS011;7649;52.084;7.478;2023-07-13T05:50:50;11.17;;;3.13;;
15096;SDS011;7649;52.084;7.478;2023-07-13T05:53:18;12.37;;;3.50;;
15096;SDS011;7649;52.084;7.478;2023-07-13T05:55:48;7.33;;;3.73;;
15096;SDS011;7649;52.084;7.478;2023-07-13T05:58:19;6.27;;;3.23;;
15096;SDS011;7649;52.084;7.478;2023-07-13T06:00:48;5.83;;;3.10;;
15096;SDS011;7649;52.084;7.478;2023-07-13T06:03:16;9.87;;;3.70;;
15096;SDS011;7649;52.084;7.478;2023-07-13T06:05:44;9.10;;;3.43;;
15096;SDS011;7649;52.084;7.478;2023-07-13T06:08:13;8.27;;;3.50;;
15096;SDS011;7649;52.084;7.478;2023-07-13T06:10:41;8.27;;;3.50;;
15096;SDS011;7649;52.084;7.478;2023-07-13T06:13:11;8.33;;;3.63;;
15096;SDS011;7649;52.084;7.478;2023-07-13T06:15:39;8.67;;;3.30;;
15096;SDS011;7649;52.084;7.478;2023-07-13T06:18:07;11.27;;;2.97;;
15096;SDS011;7649;52.084;7.478;2023-07-13T06:20:36;7.30;;;3.60;;
15096;SDS011;7649;52.084;7.478;2023-07-13T06:23:04;7.23;;;3.13;;
15096;SDS011;7649;52.084;7.478;2023-07-13T06:25:32;7.13;;;3.27;;
15096;SDS011;7649;52.084;7.478;2023-07-13T06:28:01;6.65;;;3.42;;
15096;SDS011;7649;52.084;7.478;2023-07-13T06:30:31;7.05;;;3.13;;
15096;SDS011;7649;52.084;7.478;2023-07-13T06:32:59;10.32;;;3.15;;
15096;SDS011;7649;52.084;7.478;2023-07-13T06:35:27;8.13;;;3.00;;
15096;SDS011;7649;52.084;7.478;2023-07-13T06:37:56;11.77;;;4.15;;
15096;SDS011;7649;52.084;7.478;2023-07-13T06:40:24;8.05;;;3.08;;
15096;SDS011;7649;52.084;7.478;2023-07-13T06:42:55;8.50;;;3.22;;
15096;SDS011;7649;52.084;7.478;2023-07-13T06:45:23;8.90;;;3.40;;
15096;SDS011;7649;52.084;7.478;2023-07-13T06:47:53;7.43;;;2.90;;
15096;SDS011;7649;52.084;7.478;2023-07-13T06:50:21;7.07;;;3.15;;
15096;SDS011;7649;52.084;7.478;2023-07-13T06:52:49;11.55;;;3.63;;
15096;SDS011;7649;52.084;7.478;2023-07-13T06:55:19;7.53;;;3.10;;
15096;SDS011;7649;52.084;7.478;2023-07-13T06:57:47;8.10;;;3.08;;
15096;SDS011;7649;52.084;7.478;2023-07-13T07:00:15;8.25;;;3.17;;
15096;SDS011;7649;52.084;7.478;2023-07-13T07:02:44;5.30;;;2.88;;
15096;SDS011;7649;52.084;7.478;2023-07-13T07:05:13;10.20;;;3.25;;
15096;SDS011;7649;52.084;7.478;2023-07-13T07:07:42;8.27;;;3.22;;
15096;SDS011;7649;52.084;7.478;2023-07-13T07:10:10;7.40;;;3.50;;
15096;SDS011;7649;52.084;7.478;2023-07-13T07:12:38;8.23;;;3.35;;
15096;SDS011;7649;52.084;7.478;2023-07-13T07:15:07;7.63;;;3.30;;
15096;SDS011;7649;52.084;7.478;2023-07-13T07:17:35;6.90;;;3.35;;
15096;SDS011;7649;52.084;7.478;2023-07-13T07:20:04;10.30;;;3.63;;
15096;SDS011;7649;52.084;7.478;2023-07-13T07:22:34;11.00;;;3.95;;
15096;SDS011;7649;52.084;7.478;2023-07-13T07:25:02;8.18;;;3.50;;
15096;SDS011;7649;52.084;7.478;2023-07-13T07:27:31;8.77;;;3.45;;
15096;SDS011;7649;52.084;7.478;2023-07-13T07:30:03;6.28;;;3.63;;
15096;SDS011;7649;52.084;7.478;2023-07-13T07:32:35;7.35;;;3.78;;
15096;SDS011;7649;52.084;7.478;2023-07-13T07:35:06;10.82;;;3.72;;
15096;SDS011;7649;52.084;7.478;2023-07-13T07:37:36;8.13;;;3.30;;
15096;SDS011;7649;52.084;7.478;2023-07-13T07:40:07;9.48;;;4.07;;
15096;SDS011;7649;52.084;7.478;2023-07-13T07:42:39;7.82;;;3.80;;
15096;SDS011;7649;52.084;7.478;2023-07-13T07:45:07;10.82;;;4.25;;
15096;SDS011;7649;52.084;7.478;2023-07-13T07:47:37;6.18;;;3.90;;
15096;SDS011;7649;52.084;7.478;2023-07-13T07:50:06;8.18;;;3.83;;
15096;SDS011;7649;52.084;7.478;2023-07-13T07:52:36;9.63;;;4.00;;
15096;SDS011;7649;52.084;7.478;2023-07-13T07:55:05;10.30;;;4.53;;
15096;SDS011;7649;52.084;7.478;2023-07-13T07:57:37;7.68;;;3.85;;
15096;SDS011;7649;52.084;7.478;2023-07-13T08:00:09;8.88;;;3.97;;
15096;SDS011;7649;52.084;7.478;2023-07-13T08:02:40;8.60;;;3.83;;
15096;SDS011;7649;52.084;7.478;2023-07-13T08:05:28;6.20;;;4.03;;
15096;SDS011;7649;52.084;7.478;2023-07-13T08:08:01;8.27;;;4.40;;
15096;SDS011;7649;52.084;7.478;2023-07-13T08:10:29;7.70;;;4.22;;
15096;SDS011;7649;52.084;7.478;2023-07-13T08:12:58;8.38;;;4.68;;
15096;SDS011;7649;52.084;7.478;2023-07-13T08:15:29;9.45;;;4.30;;
15096;SDS011;7649;52.084;7.478;2023-07-13T08:17:57;7.70;;;4.25;;
15096;SDS011;7649;52.084;7.478;2023-07-13T08:20:25;8.90;;;5.00;;
15096;SDS011;7649;52.084;7.478;2023-07-13T08:22:54;8.55;;;4.97;;
15096;SDS011;7649;52.084;7.478;2023-07-13T08:25:24;7.82;;;4.43;;
15096;SDS011;7649;52.084;7.478;2023-07-13T08:27:52;8.95;;;4.50;;
15096;SDS011;7649;52.084;7.478;2023-07-13T08:30:21;10.82;;;4.68;;
15096;SDS011;7649;52.084;7.478;2023-07-13T08:32:49;9.77;;;4.60;;
15096;SDS011;7649;52.084;7.478;2023-07-13T08:35:18;10.10;;;5.38;;
15096;SDS011;7649;52.084;7.478;2023-07-13T08:37:46;12.27;;;5.18;;
15096;SDS011;7649;52.084;7.478;2023-07-13T08:40:14;9.65;;;4.88;;
15096;SDS011;7649;52.084;7.478;2023-07-13T08:42:46;8.38;;;4.50;;
15096;SDS011;7649;52.084;7.478;2023-07-13T08:45:20;9.48;;;5.13;;
15096;SDS011;7649;52.084;7.478;2023-07-13T08:47:49;10.65;;;4.47;;
15096;SDS011;7649;52.084;7.478;2023-07-13T08:50:22;9.52;;;4.60;;
15096;SDS011;7649;52.084;7.478;2023-07-13T08:52:52;8.77;;;4.78;;
15096;SDS011;7649;52.084;7.478;2023-07-13T08:55:24;7.55;;;4.65;;
15096;SDS011;7649;52.084;7.478;2023-07-13T08:57:59;9.90;;;4.80;;
15096;SDS011;7649;52.084;7.478;2023-07-13T09:00:33;7.50;;;4.53;;
15096;SDS011;7649;52.084;7.478;2023-07-13T09:03:02;8.90;;;4.25;;
15096;SDS011;7649;52.084;7.478;2023-07-13T09:05:33;10.68;;;4.80;;
15096;SDS011;7649;52.084;7.478;2023-07-13T09:08:05;9.90;;;4.55;;
15096;SDS011;7649;52.084;7.478;2023-07-13T09:10:37;7.95;;;4.57;;
15096;SDS011;7649;52.084;7.478;2023-07-13T09:13:14;6.63;;;4.07;;
15096;SDS011;7649;52.084;7.478;2023-07-13T09:15:47;10.55;;;4.63;;
15096;SDS011;7649;52.084;7.478;2023-07-13T09:18:26;10.32;;;5.05;;
15096;SDS011;7649;52.084;7.478;2023-07-13T09:20:56;9.93;;;4.72;;
15096;SDS011;7649;52.084;7.478;2023-07-13T09:23:27;9.10;;;4.25;;
15096;SDS011;7649;52.084;7.478;2023-07-13T09:25:59;7.55;;;4.70;;
15096;SDS011;7649;52.084;7.478;2023-07-13T09:28:33;8.85;;;4.47;;
15096;SDS011;7649;52.084;7.478;2023-07-13T09:31:03;11.07;;;4.78;;
15096;SDS011;7649;52.084;7.478;2023-07-13T09:33:32;8.68;;;4.18;;
15096;SDS011;7649;52.084;7.478;2023-07-13T09:36:01;8.20;;;4.47;;
15096;SDS011;7649;52.084;7.478;2023-07-13T09:38:30;8.18;;;4.35;;
15096;SDS011;7649;52.084;7.478;2023-07-13T09:41:01;7.68;;;4.38;;
15096;SDS011;7649;52.084;7.478;2023-07-13T09:43:33;11.65;;;4.63;;
15096;SDS011;7649;52.084;7.478;2023-07-13T09:46:01;10.73;;;5.13;;
15096;SDS011;7649;52.084;7.478;2023-07-13T09:48:33;10.48;;;4.78;;
15096;SDS011;7649;52.084;7.478;2023-07-13T09:51:13;7.88;;;4.55;;
15096;SDS011;7649;52.084;7.478;2023-07-13T09:53:42;9.82;;;4.43;;
15096;SDS011;7649;52.084;7.478;2023-07-13T09:56:18;8.98;;;4.40;;
15096;SDS011;7649;52.084;7.478;2023-07-13T09:58:48;8.10;;;4.45;;
15096;SDS011;7649;52.084;7.478;2023-07-13T10:01:18;8.43;;;4.25;;
15096;SDS011;7649;52.084;7.478;2023-07-13T10:03:59;10.75;;;4.18;;
15096;SDS011;7649;52.084;7.478;2023-07-13T10:06:27;9.77;;;4.32;;
15096;SDS011;7649;52.084;7.478;2023-07-13T10:08:56;9.55;;;4.28;;
15096;SDS011;7649;52.084;7.478;2023-07-13T10:11:26;8.23;;;4.22;;
15096;SDS011;7649;52.084;7.478;2023-07-13T10:13:57;7.13;;;4.40;;
15096;SDS011;7649;52.084;7.478;2023-07-13T10:16:26;8.80;;;4.80;;
15096;SDS011;7649;52.084;7.478;2023-07-13T10:19:02;13.50;;;5.00;;
15096;SDS011;7649;52.084;7.478;2023-07-13T10:21:32;8.77;;;4.60;;
15096;SDS011;7649;52.084;7.478;2023-07-13T10:24:04;9.02;;;4.88;;
15096;SDS011;7649;52.084;7.478;2023-07-13T10:26:34;7.47;;;3.95;;
15096;SDS011;7649;52.084;7.478;2023-07-13T10:29:04;6.78;;;3.78;;
15096;SDS011;7649;52.084;7.478;2023-07-13T10:31:40;10.02;;;4.75;;
15096;SDS011;7649;52.084;7.478;2023-07-13T10:34:10;10.55;;;4.88;;
15096;SDS011;7649;52.084;7.478;2023-07-13T10:36:39;8.15;;;4.35;;
15096;SDS011;7649;52.084;7.478;2023-07-13T10:39:09;9.30;;;4.93;;
15096;SDS011;7649;52.084;7.478;2023-07-13T10:41:39;5.88;;;3.65;;
15096;SDS011;7649;52.084;7.478;2023-07-13T10:44:12;6.78;;;3.60;;
15096;SDS011;7649;52.084;7.478;2023-07-13T10:46:43;10.10;;;3.58;;
15096;SDS011;7649;52.084;7.478;2023-07-13T10:49:12;6.38;;;3.17;;
15096;SDS011;7649;52.084;7.478;2023-07-13T10:51:40;7.22;;;3.20;;
15096;SDS011;7649;52.084;7.478;2023-07-13T10:54:16;7.55;;;3.72;;
15096;SDS011;7649;52.084;7.478;2023-07-13T10:56:47;6.22;;;3.28;;
15096;SDS011;7649;52.084;7.478;2023-07-13T10:59:20;5.28;;;2.70;;
15096;SDS011;7649;52.084;7.478;2023-07-13T11:01:54;11.85;;;3.30;;
15096;SDS011;7649;52.084;7.478;2023-07-13T11:04:23;9.35;;;3.30;;
15096;SDS011;7649;52.084;7.478;2023-07-13T11:06:53;7.80;;;3.08;;
15096;SDS011;7649;52.084;7.478;2023-07-13T11:09:31;7.15;;;3.10;;
15096;SDS011;7649;52.084;7.478;2023-07-13T11:12:00;6.65;;;3.40;;
15096;SDS011;7649;52.084;7.478;2023-07-13T11:14:31;6.25;;;3.22;;
15096;SDS011;7649;52.084;7.478;2023-07-13T11:19:45;6.70;;;2.97;;
15096;SDS011;7649;52.084;7.478;2023-07-13T11:22:24;7.60;;;3.20;;
15096;SDS011;7649;52.084;7.478;2023-07-13T11:24:56;4.78;;;2.80;;
15096;SDS011;7649;52.084;7.478;2023-07-13T11:27:33;7.22;;;2.90;;
15096;SDS011;7649;52.084;7.478;2023-07-13T11:30:09;5.00;;;3.10;;
15096;SDS011;7649;52.084;7.478;2023-07-13T11:32:42;5.57;;;3.13;;
15096;SDS011;7649;52.084;7.478;2023-07-13T11:35:12;5.35;;;2.97;;
15096;SDS011;7649;52.084;7.478;2023-07-13T11:37:41;4.93;;;2.70;;
15096;SDS011;7649;52.084;7.478;2023-07-13T11:40:12;6.38;;;2.97;;
15096;SDS011;7649;52.084;7.478;2023-07-13T11:42:41;5.70;;;3.00;;
15096;SDS011;7649;52.084;7.478;2023-07-13T11:45:20;3.92;;;2.80;;
15096;SDS011;7649;52.084;7.478;2023-07-13T11:48:00;5.00;;;2.67;;
15096;SDS011;7649;52.084;7.478;2023-07-13T11:50:28;6.35;;;3.10;;
15096;SDS011;7649;52.084;7.478;2023-07-13T11:52:57;6.40;;;3.15;;
15096;SDS011;7649;52.084;7.478;2023-07-13T11:55:26;7.93;;;3.25;;
15096;SDS011;7649;52.084;7.478;2023-07-13T11:57:57;5.00;;;2.90;;
15096;SDS011;7649;52.084;7.478;2023-07-13T12:00:28;6.00;;;2.83;;
15096;SDS011;7649;52.084;7.478;2023-07-13T12:03:00;4.82;;;3.55;;
15096;SDS011;7649;52.084;7.478;2023-07-13T12:05:31;6.45;;;3.50;;
15096;SDS011;7649;52.084;7.478;2023-07-13T12:08:05;7.20;;;3.28;;
15096;SDS011;7649;52.084;7.478;2023-07-13T12:10:55;8.45;;;3.58;;
15096;SDS011;7649;52.084;7.478;2023-07-13T12:13:24;7.43;;;4.15;;
15096;SDS011;7649;52.084;7.478;2023-07-13T12:15:55;7.38;;;4.60;;
15096;SDS011;7649;52.084;7.478;2023-07-13T12:18:28;12.15;;;6.15;;
15096;SDS011;7649;52.084;7.478;2023-07-13T12:20:57;8.27;;;4.93;;
15096;SDS011;7649;52.084;7.478;2023-07-13T12:23:28;9.65;;;4.57;;
15096;SDS011;7649;52.084;7.478;2023-07-13T12:25:57;9.35;;;4.97;;
15096;SDS011;7649;52.084;7.478;2023-07-13T12:28:31;8.70;;;5.53;;
15096;SDS011;7649;52.084;7.478;2023-07-13T12:31:01;7.53;;;4.97;;
15096;SDS011;7649;52.084;7.478;2023-07-13T12:33:30;10.30;;;5.43;;
15096;SDS011;7649;52.084;7.478;2023-07-13T12:35:59;7.90;;;5.32;;
15096;SDS011;7649;52.084;7.478;2023-07-13T12:38:30;9.10;;;5.47;;
15096;SDS011;7649;52.084;7.478;2023-07-13T12:40:58;7.35;;;4.50;;
15096;SDS011;7649;52.084;7.478;2023-07-13T12:43:30;8.52;;;4.80;;
15096;SDS011;7649;52.084;7.478;2023-07-13T12:46:05;6.20;;;4.85;;
15096;SDS011;7649;52.084;7.478;2023-07-13T12:48:43;6.35;;;4.68;;
15096;SDS011;7649;52.084;7.478;2023-07-13T12:51:23;9.88;;;4.68;;
15096;SDS011;7649;52.084;7.478;2023-07-13T12:53:55;5.18;;;4.35;;
15096;SDS011;7649;52.084;7.478;2023-07-13T12:56:26;7.47;;;4.38;;
15096;SDS011;7649;52.084;7.478;2023-07-13T12:58:57;6.95;;;4.45;;
15096;SDS011;7649;52.084;7.478;2023-07-13T13:01:28;8.15;;;4.47;;
15096;SDS011;7649;52.084;7.478;2023-07-13T13:03:57;10.90;;;7.25;;
15096;SDS011;7649;52.084;7.478;2023-07-13T13:06:30;6.53;;;3.80;;
15096;SDS011;7649;52.084;7.478;2023-07-13T13:08:59;5.97;;;3.22;;
15096;SDS011;7649;52.084;7.478;2023-07-13T13:11:29;8.00;;;3.40;;
15096;SDS011;7649;52.084;7.478;2023-07-13T13:13:57;8.00;;;3.88;;
15096;SDS011;7649;52.084;7.478;2023-07-13T13:16:31;7.47;;;3.88;;
15096;SDS011;7649;52.084;7.478;2023-07-13T13:19:02;7.10;;;4.60;;
15096;SDS011;7649;52.084;7.478;2023-07-13T13:21:33;7.40;;;4.30;;
15096;SDS011;7649;52.084;7.478;2023-07-13T13:24:02;5.18;;;4.22;;
15096;SDS011;7649;52.084;7.478;2023-07-13T13:26:30;8.48;;;4.72;;
15096;SDS011;7649;52.084;7.478;2023-07-13T13:28:59;8.70;;;5.10;;
15096;SDS011;7649;52.084;7.478;2023-07-13T13:31:27;5.18;;;4.22;;
15096;SDS011;7649;52.084;7.478;2023-07-13T13:33:57;5.95;;;4.15;;
15096;SDS011;7649;52.084;7.478;2023-07-13T13:36:25;7.20;;;4.10;;
15096;SDS011;7649;52.084;7.478;2023-07-13T13:38:53;6.15;;;4.00;;
15096;SDS011;7649;52.084;7.478;2023-07-13T13:41:22;7.00;;;3.80;;
15096;SDS011;7649;52.084;7.478;2023-07-13T13:43:50;6.97;;;3.85;;
15096;SDS011;7649;52.084;7.478;2023-07-13T13:46:19;6.78;;;4.10;;
15096;SDS011;7649;52.084;7.478;2023-07-13T13:48:48;6.55;;;4.13;;
15096;SDS011;7649;52.084;7.478;2023-07-13T13:51:19;4.22;;;3.78;;
15096;SDS011;7649;52.084;7.478;2023-07-13T13:53:47;6.50;;;4.00;;
15096;SDS011;7649;52.084;7.478;2023-07-13T13:56:17;8.98;;;4.53;;
15096;SDS011;7649;52.084;7.478;2023-07-13T13:58:45;7.10;;;4.68;;
15096;SDS011;7649;52.084;7.478;2023-07-13T14:01:16;7.95;;;5.38;;
15096;SDS011;7649;52.084;7.478;2023-07-13T14:03:45;7.65;;;5.43;;
15096;SDS011;7649;52.084;7.478;2023-07-13T14:06:15;9.82;;;5.40;;
15096;SDS011;7649;52.084;7.478;2023-07-13T14:08:45;5.70;;;4.80;;
15096;SDS011;7649;52.084;7.478;2023-07-13T14:11:15;6.35;;;5.25;;
15096;SDS011;7649;52.084;7.478;2023-07-13T14:13:44;8.43;;;5.55;;
15096;SDS011;7649;52.084;7.478;2023-07-13T14:16:14;7.57;;;4.90;;
15096;SDS011;7649;52.084;7.478;2023-07-13T14:18:44;6.18;;;5.32;;
15096;SDS011;7649;52.084;7.478;2023-07-13T14:21:13;8.25;;;5.10;;
15096;SDS011;7649;52.084;7.478;2023-07-13T14:23:43;7.50;;;5.13;;
15096;SDS011;7649;52.084;7.478;2023-07-13T14:26:13;5.93;;;4.70;;
15096;SDS011;7649;52.084;7.478;2023-07-13T14:28:42;6.93;;;4.60;;
15096;SDS011;7649;52.084;7.478;2023-07-13T14:31:12;5.55;;;3.83;;
15096;SDS011;7649;52.084;7.478;2023-07-13T14:33:40;4.30;;;3.40;;
15096;SDS011;7649;52.084;7.478;2023-07-13T14:36:21;5.75;;;3.33;;
15096;SDS011;7649;52.084;7.478;2023-07-13T14:38:51;3.58;;;2.80;;
15096;SDS011;7649;52.084;7.478;2023-07-13T14:41:21;2.83;;;2.60;;
15096;SDS011;7649;52.084;7.478;2023-07-13T14:43:49;3.97;;;3.00;;
15096;SDS011;7649;52.084;7.478;2023-07-13T14:46:21;3.58;;;2.72;;
15096;SDS011;7649;52.084;7.478;2023-07-13T14:48:59;5.78;;;3.38;;
15096;SDS011;7649;52.084;7.478;2023-07-13T14:51:28;4.00;;;3.08;;
15096;SDS011;7649;52.084;7.478;2023-07-13T14:53:57;7.93;;;3.60;;
15096;SDS011;7649;52.084;7.478;2023-07-13T14:56:26;4.45;;;2.97;;
15096;SDS011;7649;52.084;7.478;2023-07-13T14:58:55;3.65;;;2.83;;
15096;SDS011;7649;52.084;7.478;2023-07-13T15:01:23;5.30;;;3.05;;
15096;SDS011;7649;52.084;7.478;2023-07-13T15:03:52;6.45;;;2.92;;
15096;SDS011;7649;52.084;7.478;2023-07-13T15:06:20;7.00;;;3.22;;
15096;SDS011;7649;52.084;7.478;2023-07-13T15:08:49;4.28;;;2.92;;
15096;SDS011;7649;52.084;7.478;2023-07-13T15:11:17;6.90;;;3.35;;
15096;SDS011;7649;52.084;7.478;2023-07-13T15:13:47;5.28;;;3.20;;
15096;SDS011;7649;52.084;7.478;2023-07-13T15:16:17;5.50;;;3.20;;
15096;SDS011;7649;52.084;7.478;2023-07-13T15:18:46;3.17;;;2.88;;
15096;SDS011;7649;52.084;7.478;2023-07-13T15:21:17;7.20;;;3.63;;